createdAt,value
2016-08-25T00:00:28.391Z,1019.93
2016-08-25T00:01:28.418Z,1019.98
2016-08-25T00:03:28.473Z,1019.94
2016-08-25T00:04:28.496Z,1019.91
2016-08-25T00:05:28.525Z,1019.94
2016-08-25T00:06:28.551Z,1019.93
2016-08-25T00:07:28.576Z,1019.93
2016-08-25T00:08:28.603Z,1019.91
2016-08-25T00:09:28.628Z,1019.9
2016-08-25T00:10:28.656Z,1019.88
2016-08-25T00:11:28.679Z,1019.88
2016-08-25T00:12:28.706Z,1019.9
2016-08-25T00:13:28.733Z,1019.86
2016-08-25T00:14:28.759Z,1019.88
2016-08-25T00:15:28.784Z,1019.88
2016-08-25T00:16:28.811Z,1019.9
2016-08-25T00:17:28.837Z,1019.88
2016-08-25T00:18:28.864Z,1019.89
2016-08-25T00:19:28.888Z,1019.9
2016-08-25T00:20:28.916Z,1019.92
2016-08-25T00:21:28.944Z,1019.91
2016-08-25T00:22:28.966Z,1019.89
2016-08-25T00:23:28.995Z,1019.88
2016-08-25T00:24:29.020Z,1019.9
2016-08-25T00:25:29.049Z,1019.89
2016-08-25T00:26:29.074Z,1019.89
2016-08-25T00:27:29.098Z,1019.88
2016-08-25T00:28:29.124Z,1019.87
2016-08-25T00:29:29.152Z,1019.88
2016-08-25T00:30:29.177Z,1019.87
2016-08-25T00:31:29.204Z,1019.9
2016-08-25T00:32:29.228Z,1019.89
2016-08-25T00:33:29.255Z,1019.88
2016-08-25T00:35:29.309Z,1019.88
2016-08-25T00:36:29.333Z,1019.88
2016-08-25T00:37:29.359Z,1019.88
2016-08-25T00:38:29.385Z,1019.85
2016-08-25T00:39:29.412Z,1019.85
2016-08-25T00:40:29.440Z,1019.84
2016-08-25T00:41:29.463Z,1019.85
2016-08-25T00:42:29.491Z,1019.86
2016-08-25T00:43:29.516Z,1019.89
2016-08-25T00:44:29.540Z,1019.88
2016-08-25T00:45:29.569Z,1019.88
2016-08-25T00:46:29.593Z,1019.86
2016-08-25T00:47:29.620Z,1019.86
2016-08-25T00:48:29.648Z,1019.83
2016-08-25T00:49:29.673Z,1019.86
2016-08-25T00:51:29.724Z,1019.87
2016-08-25T00:52:29.751Z,1019.82
2016-08-25T00:53:29.775Z,1019.87
2016-08-25T00:54:29.804Z,1019.86
2016-08-25T00:55:29.829Z,1019.83
2016-08-25T00:56:29.856Z,1019.88
2016-08-25T00:57:29.881Z,1019.86
2016-08-25T00:58:29.908Z,1019.87
2016-08-25T00:59:29.933Z,1019.84
2016-08-25T01:00:29.957Z,1019.84
2016-08-25T01:01:29.986Z,1019.85
2016-08-25T01:02:30.026Z,1019.81
2016-08-25T01:03:30.035Z,1019.83
2016-08-25T01:04:30.062Z,1019.78
2016-08-25T01:05:30.090Z,1019.77
2016-08-25T01:07:30.141Z,1019.77
2016-08-25T01:08:30.165Z,1019.78
2016-08-25T01:09:30.193Z,1019.78
2016-08-25T01:10:30.218Z,1019.78
2016-08-25T01:11:30.242Z,1019.72
2016-08-25T01:12:30.269Z,1019.79
2016-08-25T01:13:30.295Z,1019.73
2016-08-25T01:14:30.319Z,1019.74
2016-08-25T01:15:30.348Z,1019.67
2016-08-25T01:16:30.375Z,1019.7
2016-08-25T01:17:30.401Z,1019.7
2016-08-25T01:18:30.424Z,1019.69
2016-08-25T01:19:30.449Z,1019.67
2016-08-25T01:20:30.476Z,1019.68
2016-08-25T01:21:30.503Z,1019.65
2016-08-25T01:23:30.555Z,1019.63
2016-08-25T01:24:30.579Z,1019.65
2016-08-25T01:25:30.606Z,1019.66
2016-08-25T01:26:30.631Z,1019.67
2016-08-25T01:27:30.656Z,1019.67
2016-08-25T01:28:30.682Z,1019.65
2016-08-25T01:29:30.710Z,1019.61
2016-08-25T01:30:30.736Z,1019.64
2016-08-25T01:31:30.759Z,1019.62
2016-08-25T01:32:30.785Z,1019.59
2016-08-25T01:33:30.811Z,1019.62
2016-08-25T01:34:30.840Z,1019.6
2016-08-25T01:35:30.863Z,1019.61
2016-08-25T01:36:30.891Z,1019.63
2016-08-25T01:38:30.943Z,1019.61
2016-08-25T01:39:30.966Z,1019.63
2016-08-25T01:40:30.992Z,1019.63
2016-08-25T01:41:31.021Z,1019.61
2016-08-25T01:42:31.045Z,1019.59
2016-08-25T01:43:31.070Z,1019.56
2016-08-25T01:44:31.096Z,1019.58
2016-08-25T01:45:31.122Z,1019.59
2016-08-25T01:46:31.149Z,1019.56
2016-08-25T01:47:31.173Z,1019.58
2016-08-25T01:48:31.200Z,1019.6
2016-08-25T01:49:31.225Z,1019.59
2016-08-25T01:50:31.253Z,1019.57
2016-08-25T01:51:31.277Z,1019.6
2016-08-25T01:52:31.302Z,1019.57
2016-08-25T01:53:31.328Z,1019.57
2016-08-25T01:54:31.354Z,1019.55
2016-08-25T01:55:31.381Z,1019.56
2016-08-25T01:56:31.405Z,1019.53
2016-08-25T01:57:31.430Z,1019.53
2016-08-25T01:58:31.462Z,1019.53
2016-08-25T01:59:31.482Z,1019.54
2016-08-25T02:00:31.508Z,1019.57
2016-08-25T02:01:31.534Z,1019.52
2016-08-25T02:02:31.560Z,1019.57
2016-08-25T02:03:31.587Z,1019.57
2016-08-25T02:04:31.611Z,1019.51
2016-08-25T02:05:31.636Z,1019.6
2016-08-25T02:06:31.662Z,1019.58
2016-08-25T02:07:31.690Z,1019.57
2016-08-25T02:08:31.715Z,1019.58
2016-08-25T02:10:31.768Z,1019.59
2016-08-25T02:11:31.794Z,1019.51
2016-08-25T02:12:31.817Z,1019.52
2016-08-25T02:13:31.844Z,1019.52
2016-08-25T02:14:31.868Z,1019.52
2016-08-25T02:15:31.894Z,1019.53
2016-08-25T02:16:31.920Z,1019.5
2016-08-25T02:17:31.945Z,1019.46
2016-08-25T02:18:31.972Z,1019.47
2016-08-25T02:19:31.994Z,1019.41
2016-08-25T02:20:32.023Z,1019.44
2016-08-25T02:21:32.050Z,1019.44
2016-08-25T02:22:32.073Z,1019.39
2016-08-25T02:23:32.100Z,1019.42
2016-08-25T02:24:32.123Z,1019.42
2016-08-25T02:26:32.176Z,1019.43
2016-08-25T02:27:32.200Z,1019.42
2016-08-25T02:28:32.229Z,1019.43
2016-08-25T02:29:32.252Z,1019.4
2016-08-25T02:30:32.277Z,1019.44
2016-08-25T02:31:32.303Z,1019.43
2016-08-25T02:32:32.331Z,1019.47
2016-08-25T02:33:32.355Z,1019.47
2016-08-25T02:34:32.382Z,1019.45
2016-08-25T02:35:32.405Z,1019.42
2016-08-25T02:36:32.433Z,1019.45
2016-08-25T02:37:32.459Z,1019.39
2016-08-25T02:38:32.484Z,1019.41
2016-08-25T02:39:32.510Z,1019.42
2016-08-25T02:40:32.541Z,1019.39
2016-08-25T02:42:32.585Z,1019.37
2016-08-25T02:43:32.616Z,1019.41
2016-08-25T02:44:32.638Z,1019.36
2016-08-25T02:45:32.661Z,1019.4
2016-08-25T02:46:32.686Z,1019.35
2016-08-25T02:47:32.715Z,1019.35
2016-08-25T02:48:32.737Z,1019.35
2016-08-25T02:49:32.763Z,1019.35
2016-08-25T02:50:32.788Z,1019.3
2016-08-25T02:51:32.813Z,1019.27
2016-08-25T02:52:32.838Z,1019.28
2016-08-25T02:53:32.864Z,1019.26
2016-08-25T02:54:32.892Z,1019.23
2016-08-25T02:55:32.916Z,1019.18
2016-08-25T02:56:32.941Z,1019.21
2016-08-25T02:58:32.994Z,1019.15
2016-08-25T02:59:33.018Z,1019.16
2016-08-25T03:00:33.042Z,1019.18
2016-08-25T03:01:33.070Z,1019.14
2016-08-25T03:02:33.095Z,1019.13
2016-08-25T03:03:33.117Z,1019.13
2016-08-25T03:04:33.144Z,1019.16
2016-08-25T03:05:33.170Z,1019.19
2016-08-25T03:06:33.195Z,1019.15
2016-08-25T03:07:33.221Z,1019.17
2016-08-25T03:08:33.247Z,1019.12
2016-08-25T03:09:33.273Z,1019.12
2016-08-25T03:10:33.299Z,1019.09
2016-08-25T03:11:33.323Z,1019.03
2016-08-25T03:13:33.375Z,1019.05
2016-08-25T03:14:33.400Z,1019.03
2016-08-25T03:15:33.425Z,1019.04
2016-08-25T03:16:33.450Z,1019.03
2016-08-25T03:17:33.477Z,1019.02
2016-08-25T03:18:33.503Z,1019.05
2016-08-25T03:19:33.526Z,1019.06
2016-08-25T03:20:33.557Z,1019.02
2016-08-25T03:21:33.578Z,1019.05
2016-08-25T03:22:33.604Z,1019.06
2016-08-25T03:23:33.627Z,1019.08
2016-08-25T03:24:33.653Z,1019.06
2016-08-25T03:25:33.678Z,1019.05
2016-08-25T03:26:33.703Z,1019.06
2016-08-25T03:27:33.728Z,1019.05
2016-08-25T03:28:33.755Z,1019.08
2016-08-25T03:29:33.779Z,1019.05
2016-08-25T03:30:33.805Z,1019.05
2016-08-25T03:31:33.832Z,1019.06
2016-08-25T03:32:33.857Z,1019.06
2016-08-25T03:33:33.880Z,1019.07
2016-08-25T03:34:33.905Z,1019.05
2016-08-25T03:35:33.942Z,1019.05
2016-08-25T03:36:33.958Z,1018.99
2016-08-25T03:37:33.981Z,1019.05
2016-08-25T03:38:34.007Z,1019.01
2016-08-25T03:39:34.035Z,1019.02
2016-08-25T03:40:34.066Z,1019.01
2016-08-25T03:41:34.083Z,1018.96
2016-08-25T03:42:34.111Z,1018.93
2016-08-25T03:43:34.135Z,1018.95
2016-08-25T03:45:34.186Z,1018.93
2016-08-25T03:46:34.211Z,1018.93
2016-08-25T03:47:34.234Z,1018.92
2016-08-25T03:48:34.261Z,1018.96
2016-08-25T03:49:34.287Z,1018.96
2016-08-25T03:50:34.313Z,1018.95
2016-08-25T03:51:34.335Z,1018.93
2016-08-25T03:52:34.360Z,1018.93
2016-08-25T03:53:34.388Z,1018.94
2016-08-25T03:54:34.413Z,1018.93
2016-08-25T03:55:34.436Z,1018.94
2016-08-25T03:56:34.462Z,1018.9
2016-08-25T03:57:34.487Z,1018.93
2016-08-25T03:58:34.511Z,1018.9
2016-08-25T03:59:34.537Z,1018.91
2016-08-25T04:01:34.590Z,1018.92
2016-08-25T04:02:34.614Z,1018.9
2016-08-25T04:03:34.637Z,1018.91
2016-08-25T04:04:34.665Z,1018.9
2016-08-25T04:05:34.690Z,1018.89
2016-08-25T04:06:34.714Z,1018.89
2016-08-25T04:07:34.738Z,1018.85
2016-08-25T04:08:34.766Z,1018.91
2016-08-25T04:09:34.791Z,1018.9
2016-08-25T04:10:34.814Z,1018.87
2016-08-25T04:11:34.839Z,1018.92
2016-08-25T04:12:34.865Z,1018.91
2016-08-25T04:13:34.891Z,1018.89
2016-08-25T04:14:34.917Z,1018.94
2016-08-25T04:15:34.942Z,1018.96
2016-08-25T04:17:34.993Z,1018.96
2016-08-25T04:18:35.016Z,1018.97
2016-08-25T04:19:35.041Z,1019
2016-08-25T04:20:35.065Z,1018.96
2016-08-25T04:21:35.090Z,1019
2016-08-25T04:22:35.118Z,1019
2016-08-25T04:23:35.192Z,1018.95
2016-08-25T04:24:35.167Z,1019.01
2016-08-25T04:25:35.191Z,1018.94
2016-08-25T04:26:35.219Z,1019.02
2016-08-25T04:27:35.242Z,1019.02
2016-08-25T04:28:35.267Z,1019.01
2016-08-25T04:29:35.295Z,1018.99
2016-08-25T04:30:35.318Z,1019
2016-08-25T04:31:35.343Z,1019.03
2016-08-25T04:33:35.394Z,1018.98
2016-08-25T04:34:35.420Z,1019.03
2016-08-25T04:35:35.443Z,1019.04
2016-08-25T04:36:35.469Z,1019.07
2016-08-25T04:37:35.494Z,1019.05
2016-08-25T04:38:35.518Z,1019.06
2016-08-25T04:39:35.546Z,1019.09
2016-08-25T04:40:35.570Z,1019.1
2016-08-25T04:41:35.595Z,1019.06
2016-08-25T04:42:35.619Z,1019.1
2016-08-25T04:43:35.659Z,1019.08
2016-08-25T04:44:35.675Z,1019.08
2016-08-25T04:45:35.697Z,1019.1
2016-08-25T04:46:35.721Z,1019.11
2016-08-25T04:48:35.774Z,1019.33
2016-08-25T04:49:35.799Z,1019.48
2016-08-25T04:50:35.827Z,1019.45
2016-08-25T04:51:35.850Z,1019.48
2016-08-25T04:52:35.874Z,1019.47
2016-08-25T04:53:35.900Z,1019.44
2016-08-25T04:54:35.926Z,1019.47
2016-08-25T04:55:35.953Z,1019.5
2016-08-25T04:56:35.981Z,1019.49
2016-08-25T04:57:36.006Z,1019.46
2016-08-25T04:58:36.036Z,1019.45
2016-08-25T04:59:36.068Z,1019.44
2016-08-25T05:00:36.088Z,1019.44
2016-08-25T05:01:36.117Z,1019.45
2016-08-25T05:02:36.146Z,1019.43
2016-08-25T05:03:36.176Z,1019.41
2016-08-25T05:04:36.205Z,1019.34
2016-08-25T05:05:36.234Z,1019.36
2016-08-25T05:06:36.264Z,1019.35
2016-08-25T05:07:36.293Z,1019.33
2016-08-25T05:08:36.323Z,1019.37
2016-08-25T05:09:36.352Z,1019.4
2016-08-25T05:10:36.383Z,1019.41
2016-08-25T05:11:36.412Z,1019.43
2016-08-25T05:12:36.446Z,1019.34
2016-08-25T05:13:36.481Z,1019.28
2016-08-25T05:14:36.508Z,1019.2
2016-08-25T05:15:36.538Z,1019.14
2016-08-25T05:16:36.570Z,1019.14
2016-08-25T05:17:36.599Z,1019.16
2016-08-25T05:18:36.631Z,1019.19
2016-08-25T05:20:36.695Z,1019.09
2016-08-25T05:21:36.723Z,1019.09
2016-08-25T05:22:36.755Z,1019.05
2016-08-25T05:23:36.785Z,1019.09
2016-08-25T05:24:36.817Z,1019.13
2016-08-25T05:25:36.848Z,1019.09
2016-08-25T05:26:36.877Z,1019.04
2016-08-25T05:27:36.908Z,1019.08
2016-08-25T05:28:36.935Z,1019.04
2016-08-25T05:29:36.965Z,1019.06
2016-08-25T05:30:36.996Z,1019.25
2016-08-25T05:31:37.026Z,1019.55
2016-08-25T05:32:37.053Z,1019.43
2016-08-25T05:33:37.089Z,1019.25
2016-08-25T05:34:37.112Z,1019.19
2016-08-25T05:36:37.173Z,1019.27
2016-08-25T05:37:37.201Z,1019.53
2016-08-25T05:38:37.233Z,1019.57
2016-08-25T05:39:37.262Z,1019.51
2016-08-25T05:40:37.291Z,1019.6
2016-08-25T05:41:37.322Z,1019.66
2016-08-25T05:42:37.354Z,1019.66
2016-08-25T05:43:37.386Z,1019.64
2016-08-25T05:44:37.414Z,1019.63
2016-08-25T05:45:37.448Z,1019.67
2016-08-25T05:46:37.481Z,1019.66
2016-08-25T05:47:37.513Z,1019.7
2016-08-25T05:48:37.545Z,1019.79
2016-08-25T05:49:37.576Z,1019.77
2016-08-25T05:50:37.611Z,1019.73
2016-08-25T05:52:37.675Z,1019.75
2016-08-25T05:53:37.711Z,1019.77
2016-08-25T05:54:37.795Z,1019.77
2016-08-25T05:55:37.778Z,1019.76
2016-08-25T05:56:37.812Z,1019.78
2016-08-25T05:57:37.846Z,1019.76
2016-08-25T05:58:37.878Z,1019.72
2016-08-25T05:59:37.912Z,1019.76
2016-08-25T06:00:37.949Z,1019.79
2016-08-25T06:01:37.984Z,1019.79
2016-08-25T06:02:38.015Z,1019.96
2016-08-25T06:03:38.052Z,1020.24
2016-08-25T06:04:38.088Z,1020.49
2016-08-25T06:05:38.120Z,1020.51
2016-08-25T06:06:38.154Z,1020.53
2016-08-25T06:08:38.226Z,1020.71
2016-08-25T06:09:38.261Z,1020.79
2016-08-25T06:10:38.294Z,1020.86
2016-08-25T06:11:38.329Z,1020.93
2016-08-25T06:12:38.364Z,1021.03
2016-08-25T06:13:38.399Z,1021.06
2016-08-25T06:14:38.435Z,1021.1
2016-08-25T06:15:38.472Z,1021.08
2016-08-25T06:16:38.506Z,1021.09
2016-08-25T06:17:38.543Z,1021.18
2016-08-25T06:18:38.576Z,1021.16
2016-08-25T06:19:38.612Z,1021.18
2016-08-25T06:20:38.648Z,1021.13
2016-08-25T06:21:38.684Z,1021.2
2016-08-25T06:23:38.758Z,1021.11
2016-08-25T06:24:38.791Z,1020.98
2016-08-25T06:25:38.827Z,1021.08
2016-08-25T06:26:38.863Z,1021.14
2016-08-25T06:27:38.900Z,1021.09
2016-08-25T06:28:38.941Z,1021.05
2016-08-25T06:29:38.978Z,1020.99
2016-08-25T06:30:39.064Z,1021.03
2016-08-25T06:31:39.049Z,1021.01
2016-08-25T06:32:39.080Z,1020.89
2016-08-25T06:33:39.122Z,1020.96
2016-08-25T06:34:39.158Z,1021.03
2016-08-25T06:35:39.195Z,1021
2016-08-25T06:36:39.230Z,1020.96
2016-08-25T06:37:39.261Z,1020.97
2016-08-25T06:38:39.299Z,1020.94
2016-08-25T06:39:39.333Z,1020.92
2016-08-25T06:40:39.370Z,1020.86
2016-08-25T06:41:39.408Z,1020.84
2016-08-25T06:42:39.450Z,1020.8
2016-08-25T06:43:39.486Z,1020.82
2016-08-25T06:44:39.517Z,1020.8
2016-08-25T06:45:39.554Z,1020.72
2016-08-25T06:46:39.590Z,1020.75
2016-08-25T06:47:39.627Z,1020.76
2016-08-25T06:48:39.671Z,1020.76
2016-08-25T06:49:39.706Z,1020.73
2016-08-25T06:50:39.736Z,1020.74
2016-08-25T06:51:39.780Z,1020.73
2016-08-25T06:52:39.809Z,1020.73
2016-08-25T06:53:39.852Z,1020.73
2016-08-25T06:55:39.925Z,1020.71
2016-08-25T06:56:39.963Z,1020.75
2016-08-25T06:57:39.994Z,1020.72
2016-08-25T06:58:40.036Z,1020.72
2016-08-25T06:59:40.067Z,1020.71
2016-08-25T07:00:40.103Z,1020.68
2016-08-25T07:01:40.140Z,1020.65
2016-08-25T07:02:40.178Z,1020.67
2016-08-25T07:03:40.215Z,1020.69
2016-08-25T07:04:40.251Z,1020.67
2016-08-25T07:05:40.288Z,1020.59
2016-08-25T07:06:40.329Z,1020.63
2016-08-25T07:07:40.362Z,1020.64
2016-08-25T07:08:40.399Z,1020.56
2016-08-25T07:09:40.443Z,1020.5
2016-08-25T07:11:40.518Z,1020.51
2016-08-25T07:12:40.550Z,1020.46
2016-08-25T07:13:40.585Z,1020.46
2016-08-25T07:14:40.625Z,1020.42
2016-08-25T07:15:40.666Z,1020.42
2016-08-25T07:16:40.696Z,1020.36
2016-08-25T07:17:40.734Z,1020.34
2016-08-25T07:18:40.778Z,1020.3
2016-08-25T07:19:40.808Z,1020.28
2016-08-25T07:20:40.848Z,1020.25
2016-08-25T07:21:40.886Z,1020.25
2016-08-25T07:22:40.927Z,1020.27
2016-08-25T07:23:40.960Z,1020.23
2016-08-25T07:24:40.996Z,1020.27
2016-08-25T07:25:41.039Z,1020.24
2016-08-25T07:27:41.110Z,1020.21
2016-08-25T07:28:41.145Z,1020.23
2016-08-25T07:29:41.183Z,1020.21
2016-08-25T07:30:41.220Z,1020.2
2016-08-25T07:31:41.264Z,1020.13
2016-08-25T07:32:41.301Z,1020.12
2016-08-25T07:33:41.332Z,1020.12
2016-08-25T07:34:41.375Z,1020.09
2016-08-25T07:35:41.406Z,1019.99
2016-08-25T07:36:41.444Z,1020.04
2016-08-25T07:37:41.482Z,1020.05
2016-08-25T07:38:41.517Z,1020.07
2016-08-25T07:39:41.555Z,1020.1
2016-08-25T07:40:41.598Z,1020.02
2016-08-25T07:41:41.629Z,1020.01
2016-08-25T07:43:41.705Z,1019.91
2016-08-25T07:44:41.740Z,1019.83
2016-08-25T07:45:41.779Z,1019.82
2016-08-25T07:46:41.820Z,1019.83
2016-08-25T07:47:41.853Z,1019.8
2016-08-25T07:48:41.893Z,1019.81
2016-08-25T07:49:41.925Z,1019.74
2016-08-25T07:50:41.961Z,1019.7
2016-08-25T07:51:42.005Z,1019.69
2016-08-25T07:52:42.085Z,1019.63
2016-08-25T07:53:42.079Z,1019.59
2016-08-25T07:54:42.109Z,1019.48
2016-08-25T07:55:42.153Z,1019.48
2016-08-25T07:56:42.190Z,1019.44
2016-08-25T07:58:42.258Z,1019.47
2016-08-25T07:59:42.294Z,1019.44
2016-08-25T08:00:42.330Z,1019.41
2016-08-25T08:01:42.369Z,1019.49
2016-08-25T08:02:42.411Z,1019.48
2016-08-25T08:03:42.440Z,1019.54
2016-08-25T08:04:42.483Z,1019.53
2016-08-25T08:05:42.516Z,1019.53
2016-08-25T08:06:42.556Z,1019.59
2016-08-25T08:07:42.588Z,1019.58
2016-08-25T08:08:42.629Z,1019.35
2016-08-25T08:09:42.662Z,1019.32
2016-08-25T08:10:42.694Z,1019.3
2016-08-25T08:11:42.730Z,1019.32
2016-08-25T08:12:42.768Z,1019.34
2016-08-25T08:13:42.803Z,1019.31
2016-08-25T08:14:42.889Z,1019.37
2016-08-25T08:15:42.878Z,1019.32
2016-08-25T08:16:42.914Z,1019.33
2016-08-25T08:17:42.948Z,1019.34
2016-08-25T08:18:42.983Z,1019.33
2016-08-25T08:19:43.026Z,1019.31
2016-08-25T08:20:43.059Z,1019.31
2016-08-25T08:21:43.098Z,1019.33
2016-08-25T08:22:43.129Z,1019.29
2016-08-25T08:23:43.167Z,1019.31
2016-08-25T08:24:43.202Z,1019.26
2016-08-25T08:25:43.241Z,1019.28
2016-08-25T08:26:43.280Z,1019.38
2016-08-25T08:27:43.310Z,1019.44
2016-08-25T08:28:43.352Z,1019.49
2016-08-25T08:30:43.418Z,1019.42
2016-08-25T08:31:43.455Z,1019.36
2016-08-25T08:32:43.498Z,1019.35
2016-08-25T08:33:43.528Z,1019.33
2016-08-25T08:34:43.570Z,1019.31
2016-08-25T08:35:43.601Z,1019.24
2016-08-25T08:36:43.642Z,1019.23
2016-08-25T08:37:43.672Z,1019.2
2016-08-25T08:38:43.761Z,1019.13
2016-08-25T08:39:43.747Z,1019.07
2016-08-25T08:40:43.782Z,1018.98
2016-08-25T08:41:43.822Z,1018.87
2016-08-25T08:42:43.853Z,1018.9
2016-08-25T08:43:43.888Z,1018.92
2016-08-25T08:44:43.924Z,1018.85
2016-08-25T08:46:43.996Z,1018.85
2016-08-25T08:47:44.034Z,1018.86
2016-08-25T08:48:44.079Z,1018.84
2016-08-25T08:49:44.105Z,1018.84
2016-08-25T08:50:44.139Z,1018.84
2016-08-25T08:51:44.175Z,1018.88
2016-08-25T08:52:44.267Z,1018.83
2016-08-25T08:53:44.249Z,1018.79
2016-08-25T08:54:44.282Z,1018.8
2016-08-25T08:55:44.318Z,1018.81
2016-08-25T08:56:44.354Z,1018.8
2016-08-25T08:57:44.390Z,1018.8
2016-08-25T08:58:44.425Z,1018.8
2016-08-25T08:59:44.468Z,1018.78
2016-08-25T09:00:44.497Z,1018.85
2016-08-25T09:02:44.568Z,1018.79
2016-08-25T09:03:44.611Z,1018.77
2016-08-25T09:04:44.639Z,1018.76
2016-08-25T09:05:44.681Z,1018.75
2016-08-25T09:06:44.713Z,1018.77
2016-08-25T09:07:44.746Z,1018.82
2016-08-25T09:08:44.782Z,1018.76
2016-08-25T09:09:44.817Z,1018.71
2016-08-25T09:10:44.852Z,1018.77
2016-08-25T09:11:44.890Z,1018.76
2016-08-25T09:12:44.923Z,1018.74
2016-08-25T09:13:44.960Z,1018.74
2016-08-25T09:14:44.996Z,1018.7
2016-08-25T09:15:45.032Z,1018.74
2016-08-25T09:16:45.064Z,1018.66
2016-08-25T09:18:45.188Z,1018.67
2016-08-25T09:19:45.171Z,1018.63
2016-08-25T09:20:45.213Z,1018.66
2016-08-25T09:21:45.242Z,1018.63
2016-08-25T09:22:45.283Z,1018.67
2016-08-25T09:23:45.314Z,1018.67
2016-08-25T09:24:45.348Z,1018.64
2016-08-25T09:25:45.385Z,1018.59
2016-08-25T09:26:45.425Z,1018.55
2016-08-25T09:27:45.455Z,1018.58
2016-08-25T09:28:45.496Z,1018.49
2016-08-25T09:29:45.526Z,1018.51
2016-08-25T09:30:45.562Z,1018.49
2016-08-25T09:31:45.594Z,1018.51
2016-08-25T09:33:45.665Z,1018.44
2016-08-25T09:34:45.706Z,1018.52
2016-08-25T09:35:45.736Z,1018.47
2016-08-25T09:36:45.772Z,1018.49
2016-08-25T09:37:45.806Z,1018.46
2016-08-25T09:38:45.841Z,1018.46
2016-08-25T09:39:45.876Z,1018.45
2016-08-25T09:40:45.911Z,1018.41
2016-08-25T09:41:45.945Z,1018.42
2016-08-25T09:42:45.983Z,1018.42
2016-08-25T09:43:46.015Z,1018.44
2016-08-25T09:44:46.052Z,1018.42
2016-08-25T09:45:46.092Z,1018.41
2016-08-25T09:46:46.121Z,1018.42
2016-08-25T09:47:46.158Z,1018.46
2016-08-25T09:48:46.194Z,1018.39
2016-08-25T09:49:46.227Z,1018.35
2016-08-25T09:50:46.260Z,1018.36
2016-08-25T09:51:46.297Z,1018.35
2016-08-25T09:52:46.481Z,1018.37
2016-08-25T09:53:46.366Z,1018.38
2016-08-25T09:54:46.400Z,1018.35
2016-08-25T09:55:46.437Z,1018.34
2016-08-25T09:56:46.476Z,1018.33
2016-08-25T09:57:46.505Z,1018.31
2016-08-25T09:58:46.542Z,1018.31
2016-08-25T09:59:46.576Z,1018.3
2016-08-25T10:00:46.609Z,1018.33
2016-08-25T10:01:46.645Z,1018.35
2016-08-25T10:02:46.679Z,1018.3
2016-08-25T10:03:46.713Z,1018.27
2016-08-25T10:05:46.784Z,1018.25
2016-08-25T10:06:46.820Z,1018.23
2016-08-25T10:07:46.852Z,1018.23
2016-08-25T10:08:46.886Z,1018.25
2016-08-25T10:09:46.921Z,1018.27
2016-08-25T10:10:46.955Z,1018.27
2016-08-25T10:11:46.992Z,1018.29
2016-08-25T10:12:47.025Z,1018.29
2016-08-25T10:13:47.065Z,1018.31
2016-08-25T10:14:47.098Z,1018.25
2016-08-25T10:15:47.134Z,1018.29
2016-08-25T10:16:47.163Z,1018.28
2016-08-25T10:17:47.199Z,1018.31
2016-08-25T10:18:48.285Z,1018.26
2016-08-25T10:19:47.266Z,1018.3
2016-08-25T10:21:47.336Z,1018.27
2016-08-25T10:22:47.370Z,1018.23
2016-08-25T10:23:47.404Z,1018.29
2016-08-25T10:24:47.440Z,1018.29
2016-08-25T10:25:47.479Z,1018.27
2016-08-25T10:26:47.514Z,1018.27
2016-08-25T10:27:47.543Z,1018.24
2016-08-25T10:28:47.584Z,1018.19
2016-08-25T10:29:47.611Z,1018.19
2016-08-25T10:30:47.652Z,1018.16
2016-08-25T10:31:47.680Z,1018.19
2016-08-25T10:32:47.721Z,1018.19
2016-08-25T10:33:47.755Z,1018.14
2016-08-25T10:34:47.789Z,1018.17
2016-08-25T10:35:47.820Z,1018.13
2016-08-25T10:37:47.887Z,1018.15
2016-08-25T10:38:47.925Z,1018.09
2016-08-25T10:39:47.956Z,1018.1
2016-08-25T10:40:47.986Z,1018.12
2016-08-25T10:41:48.026Z,1018.05
2016-08-25T10:42:48.056Z,1018.03
2016-08-25T10:43:48.089Z,1018.06
2016-08-25T10:44:48.129Z,1018.04
2016-08-25T10:45:48.157Z,1018.01
2016-08-25T10:46:48.201Z,1018.05
2016-08-25T10:47:48.232Z,1018.05
2016-08-25T10:48:48.258Z,1018.08
2016-08-25T10:49:48.294Z,1018.05
2016-08-25T10:50:48.331Z,1018.13
2016-08-25T10:51:48.362Z,1018.11
2016-08-25T10:53:48.426Z,1018.06
2016-08-25T10:54:48.461Z,1018.05
2016-08-25T10:55:48.495Z,1018.04
2016-08-25T10:56:48.528Z,1018.08
2016-08-25T10:57:48.566Z,1018.02
2016-08-25T10:58:48.592Z,1018.07
2016-08-25T10:59:48.627Z,1018.06
2016-08-25T11:00:48.660Z,1018.05
2016-08-25T11:01:48.694Z,1018.02
2016-08-25T11:02:48.728Z,1018.02
2016-08-25T11:03:48.762Z,1017.96
2016-08-25T11:04:48.793Z,1017.98
2016-08-25T11:05:48.833Z,1018.01
2016-08-25T11:06:48.859Z,1017.98
2016-08-25T11:08:48.933Z,1017.89
2016-08-25T11:09:48.961Z,1017.97
2016-08-25T11:10:48.998Z,1017.94
2016-08-25T11:11:49.027Z,1017.93
2016-08-25T11:12:49.064Z,1017.95
2016-08-25T11:13:49.096Z,1017.91
2016-08-25T11:14:49.123Z,1017.91
2016-08-25T11:15:49.158Z,1017.91
2016-08-25T11:16:49.194Z,1017.89
2016-08-25T11:17:49.221Z,1017.87
2016-08-25T11:18:49.260Z,1017.91
2016-08-25T11:19:49.287Z,1017.85
2016-08-25T11:20:49.325Z,1017.89
2016-08-25T11:21:49.351Z,1017.88
2016-08-25T11:22:49.385Z,1017.89
2016-08-25T11:23:49.424Z,1017.86
2016-08-25T11:24:49.449Z,1017.86
2016-08-25T11:25:49.483Z,1017.8
2016-08-25T11:26:49.517Z,1017.83
2016-08-25T11:27:49.547Z,1017.82
2016-08-25T11:28:49.580Z,1017.8
2016-08-25T11:29:49.613Z,1017.78
2016-08-25T11:30:49.646Z,1017.75
2016-08-25T11:31:49.683Z,1017.77
2016-08-25T11:32:49.710Z,1017.76
2016-08-25T11:33:49.742Z,1017.76
2016-08-25T11:34:49.777Z,1017.78
2016-08-25T11:35:49.807Z,1017.73
2016-08-25T11:36:49.840Z,1017.76
2016-08-25T11:37:49.872Z,1017.74
2016-08-25T11:38:49.911Z,1017.77
2016-08-25T11:40:49.971Z,1017.7
2016-08-25T11:41:50.004Z,1017.66
2016-08-25T11:42:50.040Z,1017.68
2016-08-25T11:43:50.069Z,1017.66
2016-08-25T11:45:50.133Z,1017.65
2016-08-25T11:46:50.162Z,1017.73
2016-08-25T11:47:50.195Z,1017.69
2016-08-25T11:48:50.229Z,1017.68
2016-08-25T11:49:50.262Z,1017.66
2016-08-25T11:50:50.294Z,1017.68
2016-08-25T11:51:50.325Z,1017.59
2016-08-25T11:52:50.357Z,1017.67
2016-08-25T11:53:50.394Z,1017.68
2016-08-25T11:54:50.423Z,1017.67
2016-08-25T11:56:50.487Z,1017.66
2016-08-25T11:57:50.517Z,1017.64
2016-08-25T11:58:50.552Z,1017.66
2016-08-25T11:59:50.587Z,1017.61
2016-08-25T12:00:50.613Z,1017.64
2016-08-25T12:01:50.646Z,1017.66
2016-08-25T12:02:50.684Z,1017.66
2016-08-25T12:03:50.709Z,1017.61
2016-08-25T12:04:50.743Z,1017.56
2016-08-25T12:05:50.773Z,1017.58
2016-08-25T12:06:50.814Z,1017.56
2016-08-25T12:07:50.845Z,1017.53
2016-08-25T12:08:50.869Z,1017.52
2016-08-25T12:09:50.908Z,1017.52
2016-08-25T12:10:50.933Z,1017.53
2016-08-25T12:12:50.997Z,1017.49
2016-08-25T12:13:51.035Z,1017.44
2016-08-25T12:14:51.062Z,1017.46
2016-08-25T12:15:51.100Z,1017.4
2016-08-25T12:16:51.126Z,1017.45
2016-08-25T12:17:51.157Z,1017.42
2016-08-25T12:18:51.201Z,1017.35
2016-08-25T12:19:51.219Z,1017.31
2016-08-25T12:20:51.255Z,1017.36
2016-08-25T12:21:51.284Z,1017.32
2016-08-25T12:22:51.316Z,1017.32
2016-08-25T12:23:51.349Z,1017.31
2016-08-25T12:24:51.380Z,1017.33
2016-08-25T12:25:51.418Z,1017.33
2016-08-25T12:26:51.444Z,1017.29
2016-08-25T12:28:51.508Z,1017.3
2016-08-25T12:29:51.540Z,1017.29
2016-08-25T12:30:51.572Z,1017.26
2016-08-25T12:31:51.606Z,1017.23
2016-08-25T12:32:51.636Z,1017.19
2016-08-25T12:33:51.669Z,1017.29
2016-08-25T12:34:51.699Z,1017.25
2016-08-25T12:35:51.731Z,1017.22
2016-08-25T12:36:51.763Z,1017.2
2016-08-25T12:37:51.797Z,1017.2
2016-08-25T12:38:51.826Z,1017.23
2016-08-25T12:39:51.861Z,1017.21
2016-08-25T12:40:51.892Z,1017.17
2016-08-25T12:41:51.925Z,1017.12
2016-08-25T12:43:51.994Z,1017.18
2016-08-25T12:44:52.019Z,1017.13
2016-08-25T12:45:52.051Z,1017.12
2016-08-25T12:46:52.083Z,1017.16
2016-08-25T12:47:52.122Z,1017.13
2016-08-25T12:48:52.149Z,1017.12
2016-08-25T12:49:52.185Z,1017.08
2016-08-25T12:50:52.264Z,1017.07